createdAt,value
2023-05-01T00:01:30.360Z,100.00
2023-05-01T00:03:38.859Z,100.00
2023-05-01T00:05:47.797Z,100.00
2023-05-01T00:07:55.832Z,100.00
2023-05-01T00:10:04.149Z,100.00
2023-05-01T00:12:14.847Z,100.00
2023-05-01T00:14:23.040Z,100.00
2023-05-01T00:16:31.642Z,100.00
2023-05-01T00:18:42.077Z,100.00
2023-05-01T00:20:50.073Z,100.00
2023-05-01T00:22:58.222Z,100.00
2023-05-01T00:25:06.415Z,100.00
2023-05-01T00:27:19.147Z,100.00
2023-05-01T00:29:27.137Z,100.00
2023-05-01T00:31:35.220Z,100.00
2023-05-01T00:33:43.665Z,100.00
2023-05-01T00:35:53.055Z,100.00
2023-05-01T00:38:01.380Z,100.00
2023-05-01T00:40:20.753Z,100.00
2023-05-01T00:42:39.405Z,100.00
2023-05-01T00:44:47.389Z,100.00
2023-05-01T00:46:56.706Z,100.00
2023-05-01T00:49:05.004Z,100.00
2023-05-01T00:51:13.207Z,100.00
2023-05-01T00:53:22.231Z,100.00
2023-05-01T00:55:30.639Z,100.00
2023-05-01T00:57:45.090Z,100.00
2023-05-01T00:59:53.490Z,100.00
2023-05-01T01:02:01.875Z,100.00
2023-05-01T01:04:09.852Z,100.00
2023-05-01T01:06:36.851Z,100.00
2023-05-01T01:08:51.074Z,100.00
2023-05-01T01:11:08.549Z,100.00
2023-05-01T01:13:30.177Z,100.00
2023-05-01T01:15:45.517Z,100.00
2023-05-01T01:18:00.931Z,100.00
2023-05-01T01:20:38.598Z,100.00
2023-05-01T01:22:53.963Z,100.00
2023-05-01T01:25:28.306Z,100.00
2023-05-01T01:28:01.751Z,100.00
2023-05-01T01:30:42.588Z,100.00
2023-05-01T01:33:27.232Z,100.00
2023-05-01T01:35:40.906Z,100.00
2023-05-01T01:37:57.318Z,100.00
2023-05-01T01:40:12.182Z,100.00
2023-05-01T01:42:26.391Z,100.00
2023-05-01T01:44:44.543Z,100.00
2023-05-01T01:46:57.492Z,100.00
2023-05-01T01:49:09.763Z,100.00
2023-05-01T01:51:24.904Z,100.00
2023-05-01T01:53:34.415Z,100.00
2023-05-01T01:55:44.636Z,100.00
2023-05-01T01:57:56.066Z,100.00
2023-05-01T02:00:09.082Z,100.00
2023-05-01T02:02:23.516Z,100.00
2023-05-01T02:04:33.068Z,100.00
2023-05-01T02:06:45.857Z,100.00
2023-05-01T02:08:56.656Z,100.00
2023-05-01T02:11:06.607Z,100.00
2023-05-01T02:13:17.713Z,100.00
2023-05-01T02:15:28.128Z,100.00
2023-05-01T02:17:36.767Z,100.00
2023-05-01T02:19:46.299Z,100.00
2023-05-01T02:21:59.540Z,100.00
2023-05-01T02:24:09.189Z,100.00
2023-05-01T02:26:20.332Z,100.00
2023-05-01T02:28:31.339Z,100.00
2023-05-01T02:30:39.334Z,100.00
2023-05-01T02:32:47.709Z,100.00
2023-05-01T02:34:55.850Z,100.00
2023-05-01T02:37:09.344Z,100.00
2023-05-01T02:39:17.450Z,100.00
2023-05-01T02:41:25.704Z,100.00
2023-05-01T02:43:36.679Z,100.00
2023-05-01T02:45:46.970Z,100.00
2023-05-01T02:48:00.058Z,100.00
2023-05-01T02:50:11.064Z,100.00
2023-05-01T02:52:23.081Z,100.00
2023-05-01T02:54:38.818Z,100.00
2023-05-01T02:56:46.854Z,100.00
2023-05-01T02:58:54.783Z,100.00
2023-05-01T03:01:04.179Z,100.00
2023-05-01T03:03:12.278Z,100.00
2023-05-01T03:05:20.853Z,100.00
2023-05-01T03:07:35.465Z,100.00
2023-05-01T03:09:43.533Z,100.00
2023-05-01T03:11:51.644Z,100.00
2023-05-01T03:13:59.686Z,100.00
2023-05-01T03:16:08.646Z,100.00
2023-05-01T03:18:16.761Z,100.00
2023-05-01T03:20:25.844Z,100.00
2023-05-01T03:22:36.814Z,100.00
2023-05-01T03:24:45.092Z,100.00
2023-05-01T03:26:53.837Z,100.00
2023-05-01T03:29:02.184Z,100.00
2023-05-01T03:31:10.964Z,100.00
2023-05-01T03:33:27.032Z,100.00
2023-05-01T03:35:35.105Z,100.00
2023-05-01T03:37:49.530Z,100.00
2023-05-01T03:40:19.111Z,100.00
2023-05-01T03:42:45.716Z,100.00
2023-05-01T03:45:00.793Z,100.00
2023-05-01T03:47:10.558Z,100.00
2023-05-01T03:49:22.707Z,100.00
2023-05-01T03:51:31.474Z,100.00
2023-05-01T03:53:42.469Z,100.00
2023-05-01T03:55:51.803Z,100.00
2023-05-01T03:58:00.289Z,100.00
2023-05-01T04:00:10.232Z,100.00
2023-05-01T04:02:27.962Z,100.00
2023-05-01T04:04:36.327Z,100.00
2023-05-01T04:06:44.876Z,100.00
2023-05-01T04:08:56.108Z,100.00
2023-05-01T04:11:04.112Z,100.00
2023-05-01T04:13:13.164Z,100.00
2023-05-01T04:15:22.869Z,100.00
2023-05-01T04:17:32.065Z,100.00
2023-05-01T04:19:41.396Z,100.00
2023-05-01T04:21:49.581Z,100.00
2023-05-01T04:24:03.344Z,100.00
2023-05-01T04:26:11.450Z,100.00
2023-05-01T04:28:20.127Z,100.00
2023-05-01T04:30:28.948Z,100.00
2023-05-01T04:32:37.861Z,100.00
2023-05-01T04:34:47.517Z,100.00
2023-05-01T04:36:57.441Z,100.00
2023-05-01T04:39:08.484Z,100.00
2023-05-01T04:41:17.220Z,100.00
2023-05-01T04:43:26.685Z,100.00
2023-05-01T04:45:35.427Z,100.00
2023-05-01T04:47:45.872Z,100.00
2023-05-01T04:49:54.043Z,100.00
2023-05-01T04:52:02.224Z,100.00
2023-05-01T04:54:24.401Z,100.00
2023-05-01T04:56:32.502Z,100.00
2023-05-01T04:58:42.445Z,100.00
2023-05-01T05:00:55.012Z,100.00
2023-05-01T05:03:05.421Z,100.00
2023-05-01T05:05:13.476Z,100.00
2023-05-01T05:07:21.973Z,100.00
2023-05-01T05:10:01.641Z,100.00
2023-05-01T05:12:09.980Z,100.00
2023-05-01T05:14:18.195Z,100.00
2023-05-01T05:16:26.562Z,100.00
2023-05-01T05:18:34.734Z,100.00
2023-05-01T05:20:42.853Z,100.00
2023-05-01T05:22:51.475Z,100.00
2023-05-01T05:25:07.087Z,100.00
2023-05-01T05:27:16.117Z,100.00
2023-05-01T05:29:27.425Z,100.00
2023-05-01T05:31:35.735Z,100.00
2023-05-01T05:33:45.124Z,100.00
2023-05-01T05:35:55.642Z,100.00
2023-05-01T05:38:09.917Z,100.00
2023-05-01T05:40:23.356Z,100.00
2023-05-01T05:42:37.328Z,100.00
2023-05-01T05:44:47.507Z,100.00
2023-05-01T05:46:55.782Z,100.00
2023-05-01T05:49:11.303Z,100.00
2023-05-01T05:51:19.712Z,100.00
2023-05-01T05:53:28.230Z,100.00
2023-05-01T05:55:39.136Z,100.00
2023-05-01T05:57:48.416Z,100.00
2023-05-01T05:59:56.648Z,100.00
2023-05-01T06:02:06.615Z,100.00
2023-05-01T06:04:15.332Z,100.00
2023-05-01T06:06:25.021Z,100.00
2023-05-01T06:08:33.054Z,100.00
2023-05-01T06:10:46.356Z,100.00
2023-05-01T06:13:01.150Z,100.00
2023-05-01T06:15:24.997Z,100.00
2023-05-01T06:17:36.435Z,100.00
2023-05-01T06:19:44.623Z,100.00
2023-05-01T06:21:53.255Z,100.00
2023-05-01T06:24:01.558Z,100.00
2023-05-01T06:26:17.216Z,100.00
2023-05-01T06:28:25.861Z,100.00
2023-05-01T06:30:33.790Z,100.00
2023-05-01T06:32:43.842Z,100.00
2023-05-01T06:34:52.777Z,100.00
2023-05-01T06:37:01.192Z,100.00
2023-05-01T06:39:09.216Z,100.00
2023-05-01T06:41:20.182Z,100.00
2023-05-01T06:43:30.809Z,100.00
2023-05-01T06:45:40.200Z,100.00
2023-05-01T06:47:48.300Z,100.00
2023-05-01T06:49:57.024Z,100.00
2023-05-01T06:52:05.360Z,100.00
2023-05-01T06:54:15.796Z,100.00
2023-05-01T06:56:26.421Z,100.00
2023-05-01T06:58:36.979Z,100.00
2023-05-01T07:00:45.275Z,100.00
2023-05-01T07:02:53.764Z,100.00
2023-05-01T07:05:02.962Z,100.00
2023-05-01T07:07:10.988Z,100.00
2023-05-01T07:09:18.792Z,100.00
2023-05-01T07:11:31.259Z,100.00
2023-05-01T07:13:41.416Z,100.00
2023-05-01T07:15:49.914Z,100.00
2023-05-01T07:17:59.316Z,100.00
2023-05-01T07:20:08.772Z,100.00
2023-05-01T07:22:17.061Z,100.00
2023-05-01T07:24:25.318Z,100.00
2023-05-01T07:26:36.224Z,100.00
2023-05-01T07:28:44.597Z,100.00
2023-05-01T07:30:53.111Z,100.00
2023-05-01T07:33:01.243Z,100.00
2023-05-01T07:35:10.473Z,100.00
2023-05-01T07:37:19.062Z,100.00
2023-05-01T07:39:29.300Z,100.00
2023-05-01T07:41:39.947Z,100.00
2023-05-01T07:43:47.929Z,100.00
2023-05-01T07:46:00.725Z,100.00
2023-05-01T07:48:09.018Z,100.00
2023-05-01T07:50:17.284Z,100.00
2023-05-01T07:52:25.604Z,100.00
2023-05-01T07:54:33.470Z,100.00
2023-05-01T07:56:44.449Z,100.00
2023-05-01T07:58:52.387Z,100.00
2023-05-01T08:01:00.830Z,100.00
2023-05-01T08:03:09.143Z,100.00
2023-05-01T08:05:17.197Z,100.00
2023-05-01T08:07:25.163Z,100.00
2023-05-01T08:09:33.108Z,100.00
2023-05-01T08:11:46.994Z,100.00
2023-05-01T08:13:55.186Z,100.00
2023-05-01T08:16:06.989Z,100.00
2023-05-01T08:18:19.792Z,100.00
2023-05-01T08:20:28.199Z,100.00
2023-05-01T08:22:36.181Z,100.00
2023-05-01T08:24:44.597Z,100.00
2023-05-01T08:26:55.260Z,100.00
2023-05-01T08:29:06.197Z,100.00
2023-05-01T08:31:14.667Z,100.00
2023-05-01T08:33:24.648Z,100.00
2023-05-01T08:35:32.609Z,100.00
2023-05-01T08:37:41.083Z,100.00
2023-05-01T08:39:49.074Z,100.00
2023-05-01T08:42:00.384Z,100.00
2023-05-01T08:44:11.450Z,100.00
2023-05-01T08:46:28.465Z,100.00
2023-05-01T08:48:39.672Z,99.73
2023-05-01T08:50:50.035Z,95.43
2023-05-01T08:52:59.421Z,85.69
2023-05-01T08:55:08.454Z,86.71
2023-05-01T08:57:20.553Z,88.26
2023-05-01T08:59:32.068Z,85.37
2023-05-01T09:01:41.470Z,80.59
2023-05-01T09:03:52.955Z,77.11
2023-05-01T09:06:05.799Z,72.92
2023-05-01T09:08:13.780Z,73.74
2023-05-01T09:10:21.903Z,68.92
2023-05-01T09:12:35.533Z,64.06
2023-05-01T09:14:45.425Z,65.47
2023-05-01T09:16:53.581Z,62.97
2023-05-01T09:19:02.184Z,63.12
2023-05-01T09:21:10.659Z,62.66
2023-05-01T09:23:20.469Z,62.59
2023-05-01T09:25:31.623Z,61.72
2023-05-01T09:27:42.228Z,58.70
2023-05-01T09:29:51.376Z,60.15
2023-05-01T09:32:16.835Z,59.51
2023-05-01T09:34:25.139Z,58.42
2023-05-01T09:36:35.183Z,59.77
2023-05-01T09:38:46.739Z,58.96
2023-05-01T09:40:56.960Z,56.77
2023-05-01T09:43:08.288Z,57.81
2023-05-01T09:45:18.191Z,58.68
2023-05-01T09:47:28.080Z,56.93
2023-05-01T09:49:51.134Z,58.02
2023-05-01T09:52:16.971Z,54.16
2023-05-01T09:54:25.324Z,55.07
2023-05-01T09:56:35.265Z,55.38
2023-05-01T09:58:45.814Z,55.89
2023-05-01T10:00:53.736Z,55.59
2023-05-01T10:03:15.489Z,53.67
2023-05-01T10:05:23.596Z,53.65
2023-05-01T10:07:32.723Z,57.32
2023-05-01T10:09:41.522Z,60.19
2023-05-01T10:11:53.863Z,64.54
2023-05-01T10:14:14.215Z,59.34
2023-05-01T10:16:33.178Z,56.54
2023-05-01T10:18:41.186Z,56.70
2023-05-01T10:20:49.438Z,54.55
2023-05-01T10:22:58.639Z,56.32
2023-05-01T10:25:10.422Z,59.09
2023-05-01T10:27:22.560Z,63.66
2023-05-01T10:29:34.743Z,64.82
2023-05-01T10:31:42.954Z,63.98
2023-05-01T10:33:51.994Z,64.09
2023-05-01T10:36:03.549Z,64.72
2023-05-01T10:38:17.001Z,66.30
2023-05-01T10:40:50.193Z,69.55
2023-05-01T10:43:21.208Z,64.46
2023-05-01T10:45:35.925Z,66.57
2023-05-01T10:47:50.163Z,66.19
2023-05-01T10:50:09.359Z,66.66
2023-05-01T10:52:17.682Z,64.19
2023-05-01T10:54:30.174Z,62.55
2023-05-01T10:56:48.019Z,62.56
2023-05-01T10:59:03.455Z,61.49
2023-05-01T11:01:40.083Z,58.16
2023-05-01T11:03:48.423Z,62.00
2023-05-01T11:06:09.257Z,61.97
2023-05-01T11:08:33.281Z,60.31
2023-05-01T11:10:41.608Z,61.44
2023-05-01T11:12:54.300Z,64.81
2023-05-01T11:15:09.858Z,64.34
2023-05-01T11:17:50.796Z,63.31
2023-05-01T11:19:58.812Z,63.52
2023-05-01T11:22:15.520Z,58.55
2023-05-01T11:24:23.534Z,60.82
2023-05-01T11:26:32.707Z,62.98
2023-05-01T11:28:42.669Z,62.50
2023-05-01T11:30:50.891Z,63.18
2023-05-01T11:33:01.812Z,63.00
2023-05-01T11:35:11.564Z,61.98
2023-05-01T11:37:19.418Z,64.42
2023-05-01T11:39:27.511Z,63.98
2023-05-01T11:41:35.689Z,58.73
2023-05-01T11:43:54.075Z,61.43
2023-05-01T11:46:06.194Z,62.96
2023-05-01T11:48:20.957Z,64.08
2023-05-01T11:50:36.107Z,61.69
2023-05-01T11:52:49.638Z,58.33
2023-05-01T11:54:57.607Z,62.13
2023-05-01T11:57:07.119Z,62.46
2023-05-01T11:59:16.704Z,62.83
2023-05-01T12:01:24.688Z,60.41
2023-05-01T12:03:44.389Z,64.75
2023-05-01T12:05:54.738Z,60.45
2023-05-01T12:08:21.426Z,62.06
2023-05-01T12:10:29.553Z,63.18
2023-05-01T12:12:37.791Z,66.71
2023-05-01T12:14:48.351Z,66.61
2023-05-01T12:16:57.296Z,64.45
2023-05-01T12:19:07.980Z,62.44
2023-05-01T12:21:20.056Z,62.98
2023-05-01T12:23:35.028Z,63.26
2023-05-01T12:25:43.796Z,63.00
2023-05-01T12:27:53.505Z,62.37
2023-05-01T12:30:01.352Z,62.33
2023-05-01T12:32:11.244Z,60.19
2023-05-01T12:34:33.051Z,63.28
2023-05-01T12:36:41.182Z,60.17
2023-05-01T12:38:58.998Z,63.44
2023-05-01T12:41:09.016Z,66.93
2023-05-01T12:43:17.237Z,63.21
2023-05-01T12:45:25.549Z,65.85
2023-05-01T12:47:40.324Z,64.18
2023-05-01T12:49:50.925Z,65.50
2023-05-01T12:52:00.594Z,64.48
2023-05-01T12:54:08.847Z,63.45
2023-05-01T12:56:26.132Z,63.00
2023-05-01T12:58:41.915Z,61.86
2023-05-01T13:00:52.163Z,58.76
2023-05-01T13:03:06.518Z,61.61
2023-05-01T13:05:17.172Z,62.38
2023-05-01T13:07:25.331Z,60.77
2023-05-01T13:09:33.917Z,59.08
2023-05-01T13:11:42.614Z,57.71
2023-05-01T13:13:53.719Z,57.77
2023-05-01T13:16:13.035Z,57.17
2023-05-01T13:18:21.272Z,58.53
2023-05-01T13:20:32.875Z,58.32
2023-05-01T13:22:42.251Z,60.00
2023-05-01T13:24:51.350Z,61.00
2023-05-01T13:27:04.351Z,60.24
2023-05-01T13:29:17.999Z,61.03
2023-05-01T13:31:26.092Z,61.65
2023-05-01T13:33:35.702Z,61.85
2023-05-01T13:35:46.440Z,64.77
2023-05-01T13:37:58.096Z,63.90
2023-05-01T13:40:06.800Z,67.41
2023-05-01T13:42:15.890Z,65.92
2023-05-01T13:44:25.600Z,73.25
2023-05-01T13:46:33.931Z,76.25
2023-05-01T13:48:42.708Z,75.54
2023-05-01T13:50:54.861Z,83.04
2023-05-01T13:53:04.195Z,87.97
2023-05-01T13:55:15.061Z,90.78
2023-05-01T13:57:23.391Z,99.50
2023-05-01T13:59:39.816Z,100.00
2023-05-01T14:01:49.327Z,100.00
2023-05-01T14:04:02.034Z,100.00
2023-05-01T14:06:16.536Z,100.00
2023-05-01T14:08:27.196Z,100.00
2023-05-01T14:10:35.481Z,100.00
2023-05-01T14:12:43.603Z,100.00
2023-05-01T14:14:53.634Z,100.00
2023-05-01T14:17:01.603Z,100.00
2023-05-01T14:19:09.753Z,100.00
2023-05-01T14:21:21.598Z,100.00
2023-05-01T14:23:29.611Z,100.00
2023-05-01T14:25:37.730Z,100.00
2023-05-01T14:27:45.726Z,100.00
2023-05-01T14:29:53.714Z,100.00
2023-05-01T14:32:06.841Z,100.00
2023-05-01T14:34:18.490Z,100.00
2023-05-01T14:36:31.267Z,100.00
2023-05-01T14:38:43.448Z,100.00
2023-05-01T14:40:52.372Z,100.00
2023-05-01T14:43:01.901Z,100.00
2023-05-01T14:45:14.208Z,100.00
2023-05-01T14:47:25.354Z,100.00
2023-05-01T14:49:33.505Z,100.00
2023-05-01T14:51:44.314Z,100.00
2023-05-01T14:53:52.252Z,100.00
2023-05-01T14:56:00.437Z,100.00
2023-05-01T14:58:08.450Z,100.00
2023-05-01T15:00:18.177Z,100.00
2023-05-01T15:02:26.461Z,100.00
2023-05-01T15:04:34.534Z,100.00
2023-05-01T15:06:45.280Z,100.00
2023-05-01T15:08:53.399Z,100.00
2023-05-01T15:11:01.326Z,100.00
2023-05-01T15:13:09.582Z,100.00
2023-05-01T15:15:17.691Z,100.00
2023-05-01T15:17:25.724Z,100.00
2023-05-01T15:19:34.660Z,100.00
2023-05-01T15:21:45.449Z,100.00
2023-05-01T15:23:53.405Z,100.00
2023-05-01T15:26:03.778Z,100.00
2023-05-01T15:28:12.282Z,100.00
2023-05-01T15:30:22.798Z,100.00
2023-05-01T15:32:30.895Z,100.00
2023-05-01T15:34:39.738Z,100.00
2023-05-01T15:36:52.674Z,100.00
2023-05-01T15:39:00.709Z,100.00
2023-05-01T15:41:08.801Z,100.00
2023-05-01T15:43:17.202Z,100.00
2023-05-01T15:45:25.227Z,100.00
2023-05-01T15:47:33.363Z,100.00
2023-05-01T15:49:41.668Z,100.00
2023-05-01T15:51:52.293Z,100.00
2023-05-01T15:54:00.593Z,100.00
2023-05-01T15:56:10.000Z,100.00
2023-05-01T15:58:19.226Z,100.00
2023-05-01T16:00:27.463Z,100.00
2023-05-01T16:02:35.931Z,100.00
2023-05-01T16:04:44.196Z,100.00
2023-05-01T16:06:54.887Z,100.00
2023-05-01T16:09:03.125Z,100.00
2023-05-01T16:11:13.176Z,100.00
2023-05-01T16:13:21.114Z,100.00
2023-05-01T16:15:29.490Z,100.00
2023-05-01T16:17:46.940Z,100.00
2023-05-01T16:19:55.643Z,100.00
2023-05-01T16:22:09.720Z,100.00
2023-05-01T16:24:17.928Z,100.00
2023-05-01T16:26:28.375Z,100.00
2023-05-01T16:28:39.309Z,100.00
2023-05-01T16:30:48.922Z,100.00
2023-05-01T16:32:58.703Z,100.00
2023-05-01T16:35:07.397Z,100.00
2023-05-01T16:37:20.318Z,100.00
2023-05-01T16:39:32.406Z,100.00
2023-05-01T16:41:51.169Z,100.00
2023-05-01T16:44:01.403Z,100.00
2023-05-01T16:46:12.187Z,100.00
2023-05-01T16:48:34.458Z,100.00
2023-05-01T16:50:46.792Z,100.00
2023-05-01T16:53:07.031Z,100.00
2023-05-01T16:55:17.830Z,100.00
2023-05-01T16:57:31.518Z,100.00
2023-05-01T16:59:43.935Z,100.00
2023-05-01T17:01:58.835Z,100.00
2023-05-01T17:04:11.485Z,100.00
2023-05-01T17:06:24.990Z,100.00
2023-05-01T17:08:47.195Z,100.00
2023-05-01T17:10:59.126Z,100.00
2023-05-01T17:13:12.374Z,100.00
2023-05-01T17:15:24.397Z,100.00
2023-05-01T17:17:46.192Z,100.00
2023-05-01T17:19:55.725Z,100.00
2023-05-01T17:22:18.949Z,100.00
2023-05-01T17:24:32.943Z,100.00
2023-05-01T17:26:44.914Z,100.00
2023-05-01T17:28:53.189Z,100.00
2023-05-01T17:31:04.578Z,100.00
2023-05-01T17:33:16.110Z,100.00
2023-05-01T17:35:27.050Z,100.00
2023-05-01T17:37:47.557Z,100.00
2023-05-01T17:39:58.171Z,100.00
2023-05-01T17:42:06.682Z,100.00
2023-05-01T17:44:29.113Z,100.00
2023-05-01T17:46:41.705Z,100.00
2023-05-01T17:48:49.686Z,100.00
2023-05-01T17:51:00.393Z,100.00
2023-05-01T17:53:09.915Z,100.00
2023-05-01T17:55:20.605Z,100.00
2023-05-01T17:57:38.816Z,100.00
2023-05-01T17:59:51.890Z,100.00
2023-05-01T18:02:09.673Z,100.00
2023-05-01T18:04:22.069Z,100.00
2023-05-01T18:06:30.179Z,100.00
2023-05-01T18:08:40.372Z,100.00
2023-05-01T18:10:51.309Z,100.00
2023-05-01T18:12:59.430Z,100.00
2023-05-01T18:15:08.027Z,100.00
2023-05-01T18:17:18.543Z,100.00
2023-05-01T18:19:26.592Z,100.00
2023-05-01T18:21:35.115Z,100.00
2023-05-01T18:23:43.809Z,100.00
2023-05-01T18:25:54.546Z,100.00
2023-05-01T18:28:10.138Z,100.00
2023-05-01T18:30:18.713Z,100.00
2023-05-01T18:32:39.298Z,100.00
2023-05-01T18:34:55.118Z,100.00
2023-05-01T18:37:04.357Z,100.00
2023-05-01T18:39:15.573Z,100.00
2023-05-01T18:41:26.664Z,100.00
2023-05-01T18:43:36.317Z,100.00
2023-05-01T18:45:47.075Z,100.00
2023-05-01T18:48:04.510Z,100.00
2023-05-01T18:50:13.704Z,100.00
2023-05-01T18:52:21.978Z,100.00
2023-05-01T18:54:30.110Z,100.00
2023-05-01T18:57:03.830Z,100.00
2023-05-01T18:59:12.096Z,100.00
2023-05-01T19:01:29.437Z,100.00
2023-05-01T19:03:41.189Z,100.00
2023-05-01T19:05:49.396Z,100.00
2023-05-01T19:08:17.619Z,100.00
2023-05-01T19:10:26.672Z,100.00
2023-05-01T19:12:42.527Z,100.00
2023-05-01T19:14:53.280Z,100.00
2023-05-01T19:17:05.496Z,100.00
2023-05-01T19:19:13.468Z,100.00
2023-05-01T19:21:21.705Z,100.00
2023-05-01T19:23:35.056Z,100.00
2023-05-01T19:25:55.280Z,100.00
2023-05-01T19:28:14.164Z,100.00
2023-05-01T19:30:23.590Z,100.00
2023-05-01T19:32:46.304Z,100.00
2023-05-01T19:34:55.291Z,100.00
2023-05-01T19:37:04.070Z,100.00
2023-05-01T19:39:13.102Z,100.00
2023-05-01T19:41:21.003Z,100.00
2023-05-01T19:43:31.979Z,100.00
2023-05-01T19:45:40.164Z,100.00
2023-05-01T19:47:48.976Z,100.00
2023-05-01T19:49:57.040Z,100.00
2023-05-01T19:52:05.577Z,100.00
2023-05-01T19:54:21.794Z,100.00
2023-05-01T19:56:30.313Z,100.00
2023-05-01T19:58:51.486Z,100.00
2023-05-01T20:01:09.997Z,100.00
2023-05-01T20:03:20.877Z,100.00
2023-05-01T20:05:35.692Z,100.00
2023-05-01T20:07:50.409Z,100.00
2023-05-01T20:09:58.579Z,100.00
2023-05-01T20:12:08.369Z,100.00
2023-05-01T20:14:19.199Z,100.00
2023-05-01T20:16:28.020Z,100.00
2023-05-01T20:18:36.115Z,100.00
2023-05-01T20:20:44.193Z,100.00
2023-05-01T20:22:55.056Z,100.00
2023-05-01T20:25:03.009Z,100.00
2023-05-01T20:27:11.516Z,100.00
2023-05-01T20:29:21.972Z,100.00
2023-05-01T20:31:30.004Z,100.00
2023-05-01T20:33:38.018Z,100.00
2023-05-01T20:35:46.208Z,100.00
2023-05-01T20:37:54.443Z,100.00
2023-05-01T20:40:02.724Z,100.00
2023-05-01T20:42:10.860Z,100.00
2023-05-01T20:44:22.079Z,100.00
2023-05-01T20:46:30.542Z,100.00
2023-05-01T20:48:38.590Z,100.00
2023-05-01T20:50:48.538Z,100.00
2023-05-01T20:52:57.325Z,100.00
2023-05-01T20:55:06.130Z,100.00
2023-05-01T20:57:14.250Z,100.00
2023-05-01T20:59:24.893Z,100.00
2023-05-01T21:01:33.921Z,100.00
2023-05-01T21:03:43.659Z,100.00
2023-05-01T21:05:51.919Z,100.00
2023-05-01T21:08:01.020Z,100.00
2023-05-01T21:10:10.000Z,100.00
2023-05-01T21:12:19.217Z,100.00
2023-05-01T21:14:31.377Z,100.00
2023-05-01T21:16:39.584Z,100.00
2023-05-01T21:18:47.986Z,100.00
2023-05-01T21:20:56.038Z,100.00
2023-05-01T21:23:05.039Z,100.00
2023-05-01T21:25:13.569Z,100.00
2023-05-01T21:27:22.522Z,100.00
2023-05-01T21:29:33.501Z,100.00
2023-05-01T21:31:42.241Z,100.00
2023-05-01T21:33:50.800Z,100.00
2023-05-01T21:36:00.100Z,100.00
2023-05-01T21:38:08.572Z,100.00
2023-05-01T21:40:17.237Z,100.00
2023-05-01T21:42:25.543Z,100.00
2023-05-01T21:44:36.362Z,100.00
2023-05-01T21:46:44.420Z,100.00
2023-05-01T21:48:53.560Z,100.00
2023-05-01T21:51:01.906Z,100.00
2023-05-01T21:53:10.281Z,100.00
2023-05-01T21:55:21.858Z,100.00
2023-05-01T21:57:29.933Z,100.00
2023-05-01T21:59:41.947Z,100.00
2023-05-01T22:01:49.893Z,100.00
2023-05-01T22:03:59.055Z,100.00
2023-05-01T22:06:07.734Z,100.00
2023-05-01T22:08:17.998Z,100.00
2023-05-01T22:10:26.343Z,100.00
2023-05-01T22:12:34.246Z,100.00
2023-05-01T22:14:47.550Z,100.00
2023-05-01T22:16:56.467Z,100.00
2023-05-01T22:19:04.423Z,100.00
2023-05-01T22:21:12.616Z,100.00
2023-05-01T22:23:20.494Z,100.00
2023-05-01T22:25:28.764Z,100.00
2023-05-01T22:27:37.986Z,100.00
2023-05-01T22:29:49.142Z,100.00
2023-05-01T22:31:57.108Z,100.00
2023-05-01T22:34:05.623Z,100.00
2023-05-01T22:36:13.777Z,100.00
2023-05-01T22:38:21.965Z,100.00
2023-05-01T22:40:31.517Z,100.00
2023-05-01T22:42:39.527Z,100.00
2023-05-01T22:44:50.591Z,100.00
2023-05-01T22:46:59.606Z,100.00
2023-05-01T22:49:10.274Z,100.00
2023-05-01T22:51:18.226Z,100.00
2023-05-01T22:53:29.360Z,100.00
2023-05-01T22:55:38.315Z,100.00
2023-05-01T22:57:46.222Z,100.00
2023-05-01T22:59:57.878Z,100.00
2023-05-01T23:02:06.713Z,100.00
2023-05-01T23:04:15.678Z,100.00
2023-05-01T23:06:24.586Z,100.00
2023-05-01T23:08:33.839Z,100.00
2023-05-01T23:10:44.933Z,100.00
2023-05-01T23:12:52.852Z,100.00
2023-05-01T23:15:03.805Z,100.00
2023-05-01T23:17:11.659Z,100.00
2023-05-01T23:19:24.498Z,100.00
2023-05-01T23:21:32.962Z,100.00
2023-05-01T23:23:46.223Z,100.00
2023-05-01T23:25:54.986Z,100.00
2023-05-01T23:28:03.470Z,100.00
2023-05-01T23:30:16.982Z,100.00
2023-05-01T23:32:28.198Z,100.00
2023-05-01T23:34:37.283Z,100.00
2023-05-01T23:36:47.939Z,100.00
2023-05-01T23:38:56.003Z,100.00
2023-05-01T23:41:03.980Z,100.00
2023-05-01T23:43:13.333Z,100.00
2023-05-01T23:45:23.886Z,100.00
2023-05-01T23:47:32.993Z,100.00
2023-05-01T23:49:41.051Z,100.00
2023-05-01T23:51:49.023Z,100.00
2023-05-01T23:53:57.065Z,100.00
2023-05-01T23:56:05.099Z,100.00
2023-05-01T23:58:13.360Z,100.00
